createdAt,value
2023-05-23T00:01:20.009Z,44.90
2023-05-23T00:03:50.893Z,44.88
2023-05-23T00:06:25.861Z,44.50
2023-05-23T00:08:56.412Z,44.54
2023-05-23T00:11:29.231Z,44.29
2023-05-23T00:14:03.974Z,44.16
2023-05-23T00:16:35.271Z,43.83
2023-05-23T00:19:06.404Z,43.83
2023-05-23T00:21:36.247Z,43.72
2023-05-23T00:24:06.412Z,43.77
2023-05-23T00:26:37.342Z,43.86
2023-05-23T00:29:07.050Z,43.70
2023-05-23T00:31:36.875Z,43.60
2023-05-23T00:34:06.681Z,43.42
2023-05-23T00:36:39.084Z,43.12
2023-05-23T00:39:08.777Z,43.22
2023-05-23T00:41:39.404Z,43.08
2023-05-23T00:44:11.857Z,42.82
2023-05-23T00:46:42.550Z,42.89
2023-05-23T00:49:12.524Z,42.67
2023-05-23T00:51:45.409Z,42.56
2023-05-23T00:54:15.283Z,42.58
2023-05-23T00:56:45.578Z,42.58
2023-05-23T00:59:15.333Z,42.84
2023-05-23T01:01:48.617Z,42.93
2023-05-23T01:04:19.124Z,43.13
2023-05-23T01:06:51.079Z,43.19
2023-05-23T01:09:20.772Z,43.36
2023-05-23T01:11:59.776Z,43.32
2023-05-23T01:14:40.672Z,43.02
2023-05-23T01:17:48.869Z,42.73
2023-05-23T01:20:26.355Z,43.24
2023-05-23T01:23:02.559Z,43.33
2023-05-23T01:26:01.240Z,43.05
2023-05-23T01:28:34.125Z,42.97
2023-05-23T01:31:13.017Z,42.92
2023-05-23T01:33:45.827Z,42.97
2023-05-23T01:36:19.393Z,42.76
2023-05-23T01:38:49.144Z,42.37
2023-05-23T01:41:18.961Z,42.17
2023-05-23T01:43:48.811Z,42.15
2023-05-23T01:46:18.587Z,42.24
2023-05-23T01:48:49.840Z,42.29
2023-05-23T01:51:20.623Z,42.20
2023-05-23T01:53:50.946Z,42.15
2023-05-23T01:56:22.003Z,42.17
2023-05-23T01:58:51.716Z,42.12
2023-05-23T02:01:21.461Z,41.74
2023-05-23T02:03:51.658Z,41.71
2023-05-23T02:06:22.357Z,41.65
2023-05-23T02:08:52.558Z,41.78
2023-05-23T02:11:22.235Z,41.84
2023-05-23T02:13:54.612Z,41.79
2023-05-23T02:16:25.261Z,41.71
2023-05-23T02:18:57.811Z,41.45
2023-05-23T02:21:27.571Z,41.38
2023-05-23T02:23:57.700Z,41.59
2023-05-23T02:26:29.220Z,41.91
2023-05-23T02:28:59.290Z,41.54
2023-05-23T02:31:29.749Z,41.52
2023-05-23T02:33:59.540Z,41.45
2023-05-23T02:36:29.273Z,41.02
2023-05-23T02:39:01.762Z,41.38
2023-05-23T02:41:31.467Z,41.28
2023-05-23T02:44:01.523Z,41.17
2023-05-23T02:46:31.690Z,41.00
2023-05-23T02:49:02.446Z,41.04
2023-05-23T02:51:33.722Z,41.39
2023-05-23T02:54:06.471Z,41.31
2023-05-23T02:56:36.295Z,41.36
2023-05-23T02:59:05.988Z,41.30
2023-05-23T03:01:36.739Z,41.38
2023-05-23T03:04:06.510Z,41.05
2023-05-23T03:06:38.723Z,41.08
2023-05-23T03:09:09.463Z,39.77
2023-05-23T03:11:39.777Z,38.38
2023-05-23T03:14:10.291Z,40.83
2023-05-23T03:16:40.138Z,43.42
2023-05-23T03:19:10.499Z,45.66
2023-05-23T03:21:41.187Z,45.34
2023-05-23T03:24:11.109Z,44.89
2023-05-23T03:26:42.532Z,45.57
2023-05-23T03:29:13.461Z,45.56
2023-05-23T03:31:43.238Z,41.99
2023-05-23T03:34:14.725Z,40.06
2023-05-23T03:36:44.457Z,38.99
2023-05-23T03:39:17.471Z,38.94
2023-05-23T03:41:47.311Z,38.62
2023-05-23T03:44:17.626Z,38.43
2023-05-23T03:46:50.468Z,38.42
2023-05-23T03:49:20.576Z,38.89
2023-05-23T03:51:50.272Z,38.40
2023-05-23T03:54:20.696Z,38.87
2023-05-23T03:56:50.823Z,38.80
2023-05-23T03:59:22.608Z,38.78
2023-05-23T04:01:54.023Z,38.70
2023-05-23T04:04:24.552Z,38.87
2023-05-23T04:06:55.253Z,38.67
2023-05-23T04:09:26.311Z,38.68
2023-05-23T04:12:00.386Z,39.02
2023-05-23T04:14:35.096Z,38.75
2023-05-23T04:17:05.317Z,38.71
2023-05-23T04:19:38.314Z,39.05
2023-05-23T04:22:08.399Z,38.83
2023-05-23T04:24:40.894Z,39.17
2023-05-23T04:27:12.615Z,39.12
2023-05-23T04:29:43.189Z,39.03
2023-05-23T04:32:15.387Z,39.17
2023-05-23T04:34:47.209Z,39.06
2023-05-23T04:37:17.419Z,39.27
2023-05-23T04:39:48.791Z,39.59
2023-05-23T04:42:19.213Z,39.82
2023-05-23T04:44:49.315Z,39.98
2023-05-23T04:47:19.870Z,40.04
2023-05-23T04:49:53.133Z,40.64
2023-05-23T04:52:23.795Z,40.76
2023-05-23T04:54:55.589Z,41.10
2023-05-23T04:57:26.863Z,41.27
2023-05-23T04:59:59.621Z,41.10
2023-05-23T05:02:30.191Z,41.00
2023-05-23T05:04:59.907Z,40.77
2023-05-23T05:07:31.055Z,40.81
2023-05-23T05:10:01.369Z,40.93
2023-05-23T05:12:31.184Z,40.80
2023-05-23T05:15:02.261Z,40.76
2023-05-23T05:17:32.378Z,40.51
2023-05-23T05:20:02.346Z,40.39
2023-05-23T05:22:32.712Z,40.13
2023-05-23T05:25:03.393Z,39.89
2023-05-23T05:27:33.222Z,39.62
2023-05-23T05:30:07.751Z,39.51
2023-05-23T05:32:40.804Z,39.23
2023-05-23T05:35:12.377Z,39.10
2023-05-23T05:37:42.333Z,38.89
2023-05-23T05:40:13.543Z,38.67
2023-05-23T05:42:46.397Z,38.66
2023-05-23T05:45:16.644Z,38.34
2023-05-23T05:47:47.134Z,38.13
2023-05-23T05:50:16.971Z,38.25
2023-05-23T05:52:53.366Z,38.00
2023-05-23T05:55:26.566Z,37.92
2023-05-23T05:57:56.357Z,37.78
2023-05-23T06:00:26.830Z,37.58
2023-05-23T06:02:59.800Z,37.72
2023-05-23T06:05:30.380Z,37.56
2023-05-23T06:08:00.090Z,37.45
2023-05-23T06:10:29.912Z,42.89
2023-05-23T06:13:01.288Z,43.76
2023-05-23T06:15:30.925Z,44.90
2023-05-23T06:18:00.606Z,44.86
2023-05-23T06:20:31.312Z,44.64
2023-05-23T06:23:01.979Z,44.73
2023-05-23T06:25:32.334Z,45.66
2023-05-23T06:28:03.419Z,45.32
2023-05-23T06:30:35.442Z,43.91
2023-05-23T06:33:05.371Z,42.66
2023-05-23T06:35:35.918Z,42.12
2023-05-23T06:38:05.630Z,41.68
2023-05-23T06:40:35.313Z,41.00
2023-05-23T06:43:07.564Z,40.76
2023-05-23T06:45:39.811Z,40.70
2023-05-23T06:48:10.552Z,40.41
2023-05-23T06:50:40.574Z,40.42
2023-05-23T06:53:10.383Z,40.15
2023-05-23T06:55:40.094Z,39.92
2023-05-23T06:58:10.267Z,39.78
2023-05-23T07:00:40.314Z,40.09
2023-05-23T07:03:10.279Z,40.10
2023-05-23T07:05:41.425Z,40.04
2023-05-23T07:08:12.579Z,39.97
2023-05-23T07:10:43.601Z,40.18
2023-05-23T07:13:14.107Z,40.46
2023-05-23T07:15:43.841Z,40.32
2023-05-23T07:18:14.526Z,40.18
2023-05-23T07:20:44.743Z,39.99
2023-05-23T07:23:14.532Z,40.04
2023-05-23T07:25:53.826Z,39.97
2023-05-23T07:28:31.693Z,39.85
2023-05-23T07:31:01.442Z,39.81
2023-05-23T07:33:32.248Z,39.74
2023-05-23T07:36:03.116Z,39.82
2023-05-23T07:38:32.974Z,39.77
2023-05-23T07:41:10.990Z,39.79
2023-05-23T07:43:45.228Z,39.91
2023-05-23T07:46:14.982Z,39.89
2023-05-23T07:48:45.135Z,39.67
2023-05-23T07:51:20.409Z,39.49
2023-05-23T07:53:51.612Z,39.56
2023-05-23T07:56:21.374Z,39.56
2023-05-23T07:58:51.084Z,39.78
2023-05-23T08:01:21.826Z,39.70
2023-05-23T08:03:51.619Z,38.89
2023-05-23T08:06:21.392Z,37.07
2023-05-23T08:08:51.177Z,36.26
2023-05-23T08:11:20.937Z,35.58
2023-05-23T08:13:51.008Z,35.24
2023-05-23T08:16:20.867Z,35.22
2023-05-23T08:18:50.643Z,35.32
2023-05-23T08:21:20.389Z,35.28
2023-05-23T08:23:50.443Z,35.09
2023-05-23T08:26:20.258Z,35.45
2023-05-23T08:28:51.004Z,35.37
2023-05-23T08:31:20.765Z,35.31
2023-05-23T08:33:50.937Z,35.16
2023-05-23T08:36:20.745Z,35.54
2023-05-23T08:38:51.624Z,34.99
2023-05-23T08:41:25.155Z,35.17
2023-05-23T08:43:57.568Z,35.44
2023-05-23T08:46:27.786Z,35.37
2023-05-23T08:48:58.001Z,35.33
2023-05-23T08:51:30.591Z,35.36
2023-05-23T08:54:00.986Z,35.89
2023-05-23T08:56:30.839Z,35.87
2023-05-23T08:59:00.733Z,35.60
2023-05-23T09:01:31.027Z,35.90
2023-05-23T09:04:09.364Z,35.94
2023-05-23T09:06:39.455Z,35.92
2023-05-23T09:09:12.245Z,35.93
2023-05-23T09:11:42.656Z,35.87
2023-05-23T09:14:12.344Z,36.07
2023-05-23T09:16:42.170Z,36.07
2023-05-23T09:19:15.701Z,35.82
2023-05-23T09:21:48.340Z,35.75
2023-05-23T09:24:18.118Z,36.14
2023-05-23T09:26:50.008Z,36.03
2023-05-23T09:29:23.045Z,35.79
2023-05-23T09:31:52.947Z,36.05
2023-05-23T09:34:22.618Z,36.16
2023-05-23T09:36:53.073Z,36.07
2023-05-23T09:39:23.686Z,35.65
2023-05-23T09:41:53.314Z,35.80
2023-05-23T09:44:25.862Z,35.77
2023-05-23T09:46:55.749Z,35.87
2023-05-23T09:49:25.480Z,35.91
2023-05-23T09:52:01.933Z,35.78
2023-05-23T09:54:32.514Z,35.89
2023-05-23T09:57:02.713Z,35.86
2023-05-23T09:59:33.764Z,35.83
2023-05-23T10:02:05.296Z,35.81
2023-05-23T10:04:36.038Z,35.50
2023-05-23T10:07:23.981Z,35.58
2023-05-23T10:09:59.280Z,35.39
2023-05-23T10:12:34.862Z,35.39
2023-05-23T10:15:08.982Z,35.60
2023-05-23T10:18:30.244Z,35.31
2023-05-23T10:21:02.761Z,35.53
2023-05-23T10:23:32.501Z,35.79
2023-05-23T10:26:02.345Z,35.66
2023-05-23T10:28:33.918Z,35.68
2023-05-23T10:31:03.643Z,35.64
2023-05-23T10:33:35.909Z,35.48
2023-05-23T10:36:17.069Z,35.77
2023-05-23T10:39:04.595Z,35.88
2023-05-23T10:41:47.053Z,36.05
2023-05-23T10:44:29.496Z,36.48
2023-05-23T10:47:03.909Z,36.46
2023-05-23T10:49:49.296Z,36.70
2023-05-23T10:52:23.063Z,36.76
2023-05-23T10:54:57.801Z,36.70
2023-05-23T10:57:31.301Z,37.15
2023-05-23T11:00:00.962Z,37.04
2023-05-23T11:02:31.384Z,36.70
2023-05-23T11:05:26.225Z,36.98
2023-05-23T11:08:20.478Z,36.99
2023-05-23T11:11:05.974Z,37.07
2023-05-23T11:13:58.256Z,37.11
2023-05-23T11:16:28.722Z,37.24
2023-05-23T11:19:23.507Z,37.26
2023-05-23T11:21:58.075Z,37.29
2023-05-23T11:24:47.615Z,37.24
2023-05-23T11:27:17.540Z,37.00
2023-05-23T11:29:47.227Z,37.20
2023-05-23T11:32:17.793Z,37.38
2023-05-23T11:34:47.715Z,37.21
2023-05-23T11:37:20.116Z,37.43
2023-05-23T11:39:53.421Z,37.51
2023-05-23T11:42:23.158Z,37.25
2023-05-23T11:44:53.543Z,37.49
2023-05-23T11:47:23.613Z,37.18
2023-05-23T11:49:53.412Z,37.50
2023-05-23T11:52:23.419Z,37.54
2023-05-23T11:54:55.012Z,37.50
2023-05-23T11:57:26.276Z,37.69
2023-05-23T11:59:56.266Z,37.63
2023-05-23T12:02:26.082Z,37.63
2023-05-23T12:04:55.930Z,37.79
2023-05-23T12:07:25.726Z,37.90
2023-05-23T12:09:58.999Z,37.91
2023-05-23T12:12:31.362Z,37.80
2023-05-23T12:15:02.705Z,37.74
2023-05-23T12:17:33.433Z,37.96
2023-05-23T12:20:03.361Z,37.86
2023-05-23T12:22:33.710Z,37.88
2023-05-23T12:25:06.513Z,38.06
2023-05-23T12:27:37.309Z,37.80
2023-05-23T12:30:11.197Z,38.03
2023-05-23T12:32:44.933Z,37.95
2023-05-23T12:35:16.044Z,38.01
2023-05-23T12:37:49.035Z,38.10
2023-05-23T12:40:19.883Z,38.11
2023-05-23T12:42:57.403Z,38.22
2023-05-23T12:45:38.240Z,38.28
2023-05-23T12:48:11.064Z,38.28
2023-05-23T12:50:40.868Z,38.14
2023-05-23T12:53:10.565Z,38.28
2023-05-23T12:55:41.465Z,38.21
2023-05-23T12:58:11.407Z,38.32
2023-05-23T13:00:41.177Z,38.21
2023-05-23T13:03:12.125Z,38.45
2023-05-23T13:05:42.192Z,38.43
2023-05-23T13:08:13.834Z,38.28
2023-05-23T13:10:46.420Z,38.04
2023-05-23T13:13:16.826Z,38.33
2023-05-23T13:15:48.130Z,38.36
2023-05-23T13:18:19.639Z,38.64
2023-05-23T13:20:49.331Z,38.32
2023-05-23T13:23:19.042Z,38.25
2023-05-23T13:25:48.821Z,38.36
2023-05-23T13:28:18.825Z,38.34
2023-05-23T13:30:48.915Z,38.54
2023-05-23T13:33:19.702Z,38.45
2023-05-23T13:35:50.815Z,38.48
2023-05-23T13:38:21.272Z,38.64
2023-05-23T13:40:53.229Z,38.43
2023-05-23T13:43:23.892Z,38.17
2023-05-23T13:45:54.235Z,38.10
2023-05-23T13:48:23.932Z,38.29
2023-05-23T13:50:53.708Z,38.15
2023-05-23T13:53:23.526Z,38.25
2023-05-23T13:55:53.327Z,38.25
2023-05-23T13:58:23.853Z,38.28
2023-05-23T14:00:54.212Z,38.42
2023-05-23T14:03:26.732Z,38.57
2023-05-23T14:05:56.777Z,38.26
2023-05-23T14:08:26.485Z,38.33
2023-05-23T14:10:56.607Z,38.29
2023-05-23T14:13:26.305Z,38.56
2023-05-23T14:15:56.078Z,38.27
2023-05-23T14:18:25.832Z,38.41
2023-05-23T14:20:55.536Z,38.69
2023-05-23T14:23:25.262Z,38.69
2023-05-23T14:25:55.012Z,38.72
2023-05-23T14:28:24.668Z,38.47
2023-05-23T14:30:54.453Z,38.37
2023-05-23T14:33:24.504Z,38.54
2023-05-23T14:35:54.399Z,38.18
2023-05-23T14:38:24.197Z,38.59
2023-05-23T14:40:55.275Z,38.34
2023-05-23T14:43:24.973Z,38.51
2023-05-23T14:45:54.705Z,38.37
2023-05-23T14:48:25.138Z,38.65
2023-05-23T14:50:55.242Z,38.66
2023-05-23T14:53:25.592Z,38.55
2023-05-23T14:55:55.899Z,38.72
2023-05-23T14:58:28.146Z,38.37
2023-05-23T15:00:58.944Z,38.65
2023-05-23T15:03:29.789Z,38.64
2023-05-23T15:05:59.507Z,38.62
2023-05-23T15:08:29.323Z,38.45
2023-05-23T15:11:00.052Z,38.52
2023-05-23T15:13:30.224Z,38.61
2023-05-23T15:16:00.410Z,38.58
2023-05-23T15:18:39.921Z,38.73
2023-05-23T15:21:10.817Z,38.51
2023-05-23T15:23:40.511Z,38.49
2023-05-23T15:26:10.159Z,38.33
2023-05-23T15:28:39.825Z,38.51
2023-05-23T15:31:09.552Z,38.58
2023-05-23T15:33:39.280Z,38.74
2023-05-23T15:36:09.647Z,38.67
2023-05-23T15:38:39.299Z,38.39
2023-05-23T15:41:09.027Z,38.75
2023-05-23T15:43:38.907Z,38.64
2023-05-23T15:46:11.426Z,38.75
2023-05-23T15:48:41.166Z,38.63
2023-05-23T15:51:10.879Z,38.83
2023-05-23T15:53:58.857Z,38.66
2023-05-23T15:56:30.099Z,38.73
2023-05-23T15:58:59.778Z,38.77
2023-05-23T16:01:29.837Z,38.89
2023-05-23T16:03:59.718Z,38.69
2023-05-23T16:06:29.849Z,38.72
2023-05-23T16:09:00.127Z,39.08
2023-05-23T16:11:29.858Z,38.62
2023-05-23T16:13:59.920Z,38.71
2023-05-23T16:16:29.685Z,38.94
2023-05-23T16:18:59.482Z,38.98
2023-05-23T16:21:29.234Z,39.09
2023-05-23T16:23:58.968Z,38.72
2023-05-23T16:26:29.748Z,38.85
2023-05-23T16:28:59.463Z,38.93
2023-05-23T16:31:30.379Z,38.87
2023-05-23T16:34:00.832Z,38.70
2023-05-23T16:36:34.223Z,38.62
2023-05-23T16:39:04.888Z,38.87
2023-05-23T16:41:37.168Z,38.52
2023-05-23T16:44:07.347Z,38.52
2023-05-23T16:46:37.211Z,38.48
2023-05-23T16:49:06.912Z,38.77
2023-05-23T16:51:36.611Z,38.57
2023-05-23T16:54:06.337Z,38.76
2023-05-23T16:56:36.124Z,38.99
2023-05-23T16:59:06.269Z,38.86
2023-05-23T17:01:38.764Z,38.82
2023-05-23T17:04:09.535Z,38.73
2023-05-23T17:06:39.658Z,38.79
2023-05-23T17:09:10.321Z,38.67
2023-05-23T17:11:40.035Z,38.68
2023-05-23T17:14:09.728Z,38.82
2023-05-23T17:16:39.569Z,38.57
2023-05-23T17:19:10.070Z,38.60
2023-05-23T17:21:39.856Z,38.69
2023-05-23T17:24:09.678Z,38.78
2023-05-23T17:26:39.420Z,38.68
2023-05-23T17:29:09.161Z,38.64
2023-05-23T17:31:38.913Z,38.46
2023-05-23T17:34:10.086Z,38.95
2023-05-23T17:36:40.000Z,38.60
2023-05-23T17:39:11.234Z,38.55
2023-05-23T17:41:41.359Z,38.41
2023-05-23T17:44:11.453Z,38.74
2023-05-23T17:46:42.473Z,38.41
2023-05-23T17:49:12.293Z,38.41
2023-05-23T17:51:42.105Z,38.38
2023-05-23T17:54:11.825Z,38.55
2023-05-23T17:56:45.844Z,38.78
2023-05-23T17:59:19.252Z,38.72
2023-05-23T18:01:49.378Z,38.59
2023-05-23T18:04:19.140Z,38.66
2023-05-23T18:06:49.360Z,38.66
2023-05-23T18:09:19.142Z,38.48
2023-05-23T18:11:48.876Z,38.84
2023-05-23T18:14:20.105Z,38.45
2023-05-23T18:16:49.924Z,38.30
2023-05-23T18:19:21.109Z,38.44
2023-05-23T18:21:50.845Z,38.46
2023-05-23T18:24:24.939Z,38.54
2023-05-23T18:26:54.687Z,38.51
2023-05-23T18:29:24.789Z,38.43
2023-05-23T18:31:54.489Z,38.42
2023-05-23T18:34:25.117Z,38.38
2023-05-23T18:36:56.289Z,38.80
2023-05-23T18:39:26.097Z,38.42
2023-05-23T18:41:55.812Z,38.65
2023-05-23T18:44:25.942Z,38.26
2023-05-23T18:46:55.701Z,38.24
2023-05-23T18:49:25.463Z,38.38
2023-05-23T18:51:55.985Z,38.28
2023-05-23T18:54:25.692Z,38.21
2023-05-23T18:56:55.815Z,38.45
2023-05-23T18:59:25.633Z,38.28
2023-05-23T19:01:55.473Z,38.25
2023-05-23T19:04:25.800Z,38.23
2023-05-23T19:06:55.950Z,38.38
2023-05-23T19:09:25.619Z,38.69
2023-05-23T19:11:55.345Z,38.75
2023-05-23T19:14:25.599Z,38.78
2023-05-23T19:16:56.149Z,38.69
2023-05-23T19:19:27.325Z,38.64
2023-05-23T19:21:58.346Z,38.68
2023-05-23T19:24:28.083Z,38.65
2023-05-23T19:26:57.916Z,38.34
2023-05-23T19:29:28.524Z,38.62
2023-05-23T19:31:58.312Z,38.49
2023-05-23T19:34:29.659Z,38.76
2023-05-23T19:36:59.577Z,38.48
2023-05-23T19:39:29.347Z,38.56
2023-05-23T19:42:02.174Z,38.87
2023-05-23T19:44:31.958Z,38.41
2023-05-23T19:47:02.016Z,38.50
2023-05-23T19:49:31.793Z,38.34
2023-05-23T19:52:01.502Z,38.29
2023-05-23T19:54:31.338Z,38.71
2023-05-23T19:57:01.180Z,38.79
2023-05-23T19:59:30.905Z,38.70
2023-05-23T20:02:00.730Z,38.97
2023-05-23T20:04:31.416Z,38.63
2023-05-23T20:07:02.004Z,38.54
2023-05-23T20:09:31.770Z,38.67
2023-05-23T20:12:01.555Z,38.96
2023-05-23T20:14:32.861Z,38.60
2023-05-23T20:17:02.794Z,38.79
2023-05-23T20:19:32.782Z,38.54
2023-05-23T20:22:02.635Z,38.84
2023-05-23T20:24:33.559Z,39.01
2023-05-23T20:27:03.355Z,38.76
2023-05-23T20:29:36.112Z,38.58
2023-05-23T20:32:05.884Z,38.74
2023-05-23T20:34:36.327Z,38.49
2023-05-23T20:37:06.814Z,38.47
2023-05-23T20:39:36.520Z,38.54
2023-05-23T20:42:07.580Z,38.37
2023-05-23T20:44:39.457Z,38.64
2023-05-23T20:47:11.412Z,38.54
2023-05-23T20:49:44.898Z,38.43
2023-05-23T20:52:14.606Z,38.39
2023-05-23T20:54:44.317Z,38.73
2023-05-23T20:57:14.494Z,38.75
2023-05-23T20:59:44.194Z,38.74
2023-05-23T21:02:15.556Z,38.55
2023-05-23T21:04:48.084Z,38.82
2023-05-23T21:07:18.678Z,38.96
2023-05-23T21:09:49.325Z,38.82
2023-05-23T21:12:18.997Z,39.03
2023-05-23T21:14:48.660Z,38.89
2023-05-23T21:17:18.501Z,38.92
2023-05-23T21:19:48.556Z,39.27
2023-05-23T21:22:18.968Z,38.78
2023-05-23T21:24:48.717Z,38.94
2023-05-23T21:27:18.841Z,38.97
2023-05-23T21:29:48.762Z,38.81
2023-05-23T21:32:18.516Z,39.26
2023-05-23T21:34:48.277Z,38.98
2023-05-23T21:37:18.368Z,38.75
2023-05-23T21:39:51.921Z,39.12
2023-05-23T21:42:22.782Z,38.94
2023-05-23T21:44:53.972Z,38.82
2023-05-23T21:47:25.539Z,39.27
2023-05-23T21:49:55.243Z,39.36
2023-05-23T21:52:25.968Z,39.07
2023-05-23T21:54:55.644Z,39.27
2023-05-23T21:57:25.346Z,39.32
2023-05-23T21:59:55.061Z,39.25
2023-05-23T22:02:25.814Z,39.36
2023-05-23T22:04:55.895Z,39.61
2023-05-23T22:07:27.359Z,39.43
2023-05-23T22:09:57.880Z,39.73
2023-05-23T22:12:27.716Z,39.48
2023-05-23T22:14:58.741Z,39.28
2023-05-23T22:17:28.494Z,39.40
2023-05-23T22:19:59.590Z,39.65
2023-05-23T22:22:29.433Z,39.21
2023-05-23T22:25:02.027Z,39.13
2023-05-23T22:27:31.755Z,39.04
2023-05-23T22:30:01.617Z,39.05
2023-05-23T22:32:31.462Z,39.24
2023-05-23T22:35:04.523Z,39.31
2023-05-23T22:37:35.205Z,39.26
2023-05-23T22:40:08.110Z,38.90
2023-05-23T22:42:38.082Z,38.85
2023-05-23T22:45:09.413Z,38.49
2023-05-23T22:47:40.158Z,38.41
2023-05-23T22:50:11.127Z,38.56
2023-05-23T22:52:41.940Z,38.76
2023-05-23T22:55:13.284Z,38.68
2023-05-23T22:57:43.147Z,38.60
2023-05-23T23:00:13.870Z,38.25
2023-05-23T23:02:47.169Z,38.38
2023-05-23T23:05:16.987Z,38.85
2023-05-23T23:07:47.945Z,38.50
2023-05-23T23:10:17.838Z,38.65
2023-05-23T23:12:47.809Z,38.70
2023-05-23T23:15:17.656Z,38.49
2023-05-23T23:17:47.504Z,38.55
2023-05-23T23:20:18.816Z,38.42
2023-05-23T23:22:48.709Z,38.28
2023-05-23T23:25:20.376Z,38.55
2023-05-23T23:27:50.128Z,38.62
2023-05-23T23:30:19.882Z,38.40
2023-05-23T23:32:49.682Z,38.35
2023-05-23T23:35:19.767Z,38.39
2023-05-23T23:37:49.453Z,38.40
2023-05-23T23:40:21.485Z,38.39
2023-05-23T23:42:51.916Z,38.22
2023-05-23T23:45:21.672Z,38.21
2023-05-23T23:47:51.380Z,38.27
2023-05-23T23:50:21.539Z,38.52
2023-05-23T23:52:51.553Z,38.24
2023-05-23T23:55:22.578Z,38.37
2023-05-23T23:57:55.531Z,38.31
